Nearby METAR Reports

 

KCXY - Harrisburg, Pennsylvania, USA
Distance from station: E 9mi, 14km
Updated: Wed, 14-Nov-2018 9:56am EST
Few Clouds
Few Clouds
 Wind from NW
Wind: NW 10 mph , 17 km/h
Temperature: 39°F , 4°C
Wind Chill: 32°F , 0°C
Dew Point: 19°F , -7°C
Humidity: 45%
Barometer: 30.46 inHg , 1031.5 hPa
Clouds: Few Clouds
Visibility: 10 miles , 16 km
Cloud details: Few Clouds 4500 ft
2018/11/14 14:56 KCXY 141456Z 32009KT 10SM FEW045 04/M07 A3046 RMK AO2 SLP317 T00391072 51026
KMDT - Middletown, Pennsylvania, USA
Distance from station: E 13mi, 21km
Updated: Wed, 14-Nov-2018 9:56am EST
Partly cloudy
Partly cloudy
 Wind from NW
Wind: NW 9 mph , 15 km/h
Temperature: 37°F , 3°C
Wind Chill: 30°F , -1°C
Dew Point: 21°F , -6°C
Humidity: 52%
Barometer: 30.45 inHg , 1031.2 hPa
Clouds: Partly cloudy
Visibility: 10 miles , 16 km
Cloud details: Partly cloudy 4600 ft
2018/11/14 14:56 KMDT 141456Z 32008KT 10SM SCT046 03/M06 A3045 RMK AO2 SLP314 T00331056 51026
 
KTHV - York, Pennsylvania, USA
Distance from station: SSE 22mi, 36km
Updated: Wed, 14-Nov-2018 9:53am EST
Clear
Clear
 Wind from WNW
Wind: WNW 13 mph , 20 km/h
Temperature: 37°F , 3°C
Wind Chill: 29°F , -2°C
Dew Point: 21°F , -6°C
Humidity: 52%
Barometer: 30.45 inHg , 1031.2 hPa
Clouds: Clear
Visibility: 10 miles , 16 km
2018/11/14 14:53 KTHV 141453Z AUTO 30011KT 10SM CLR 03/M06 A3045 RMK AO2 SLP318 T00331061 51026
KMUI - Muir Aaf/Indiant, Pennsylvania, USA
Distance from station: ENE 27mi, 44km
Updated: Wed, 14-Nov-2018 9:56am EST
Mostly cloudy
Mostly cloudy
 Wind from NW
Wind: NW 10 mph , 17 km/h, Gust: 21 mph , 33 km/h
Temperature: 37°F , 3°C
Wind Chill: 30°F , -1°C
Dew Point: 16°F , -9°C
Humidity: 41%
Barometer: 30.44 inHg , 1030.8 hPa
Clouds: Mostly cloudy
Visibility: 10 miles , 16 km
Cloud details: Few Clouds 4800 ft
Mostly cloudy 20000 ft
2018/11/14 14:56 KMUI 141456Z 31009G18KT 10SM FEW048 BKN200 03/M09 A3044 RMK AO2A SLP315 T00251094 52024 $
 
KLNS - Lancaster, Pennsylvania, USA
Distance from station: E 38mi, 62km
Updated: Wed, 14-Nov-2018 10:53am EST
Clear
Clear
 Wind from NNW
Wind: NNW 15 mph , 24 km/h, Gust: 20 mph , 31 km/h
Temperature: 39°F , 4°C
Wind Chill: 31°F , -1°C
Dew Point: 19°F , -7°C
Humidity: 45%
Barometer: 30.45 inHg , 1031.2 hPa
Clouds: Clear
Visibility: 10 miles , 16 km
2018/11/14 15:53 KLNS 141553Z COR 33013G17KT 10SM SKC 04/M07 A3045
KRYT - Fountain Dale, Pennsylvania, USA
Distance from station: SSW 40mi, 65km
Updated: Mon, 13-Nov-2017 7:53am EST
NOT Current
Mist, Overcast
Mist, Overcast
 Wind from calm
Wind: Calm
Temperature: 37°F , 3°C
Dew Point: 34°F , 1°C
Humidity: 87%
Barometer: 30.31 inHg , 1026.4 hPa
Summary: Mist
Clouds: Overcast
Visibility: 5 miles , 8 km
Cloud details: Overcast 700 ft
2017/11/13 12:53 KRYT 131253Z AUTO 00000KT 5SM BR OVC007 03/01 A3031 RMK AO2 SLP275 T00280011 TSNO $
 
KSEG - Selinsgrove, Pennsylvania, USA
Distance from station: N 42mi, 67km
Updated: Wed, 14-Nov-2018 9:53am EST
Partly cloudy
Partly cloudy
 Wind from NNW
Wind: NNW 10 mph , 17 km/h
Temperature: 36°F , 2°C
Wind Chill: 29°F , -2°C
Dew Point: 18°F , -8°C
Humidity: 48%
Barometer: 30.47 inHg , 1031.8 hPa
Clouds: Partly cloudy
Visibility: 10 miles , 16 km
Cloud details: Partly cloudy 4700 ft
2018/11/14 14:53 KSEG 141453Z AUTO 34009KT 10SM SCT047 02/M08 A3047 RMK AO2 SLP322 T00171078 51027
KDMW - Carroll Cnty, Maryland, USA
Distance from station: S 43mi, 69km
Updated: Wed, 14-Nov-2018 10:40am EST
Clear
Clear
 Wind from W
Wind: W 14 mph , 22 km/h
Temperature: 37°F , 3°C
Wind Chill: 28°F , -2°C
Dew Point: 12°F , -11°C
Humidity: 35%
Barometer: 30.45 inHg , 1031.2 hPa
Clouds: Clear
Visibility: 10 miles , 16 km
2018/11/14 15:40 KDMW 141540Z AUTO 28012KT 10SM CLR 03/M11 A3045 RMK AO2
 
KRSP - Camp David, Maryland, USA
Distance from station: SSW 46mi, 74km
Updated: Wed, 14-Nov-2018 8:54am EST
NOT Current
Clear
Clear
 Wind from NNW
Wind: NNW 7 mph , 11 km/h
Temperature: 30°F , -1°C
Wind Chill: 23°F , -5°C
Dew Point: 19°F , -7°C
Humidity: 64%
Barometer: 30.41 inHg , 1029.8 hPa
Clouds: Clear
Visibility: 10 miles , 16 km
2018/11/14 13:54 KRSP 141354Z AUTO 34006KT 10SM CLR M01/M07 A3041 RMK AO2 SLP321 T10061067 $